createdAt,value
2022-10-22T00:02:11.908Z,97986.41
2022-10-22T00:04:38.057Z,97990.13
2022-10-22T00:07:04.169Z,98001.41
2022-10-22T00:09:30.284Z,97995.22
2022-10-22T00:11:56.378Z,97997.91
2022-10-22T00:14:22.470Z,98006.31
2022-10-22T00:16:48.577Z,98007.56
2022-10-22T00:19:14.681Z,98005.69
2022-10-22T00:21:40.786Z,98002.84
2022-10-22T00:24:06.937Z,98002.84
2022-10-22T00:26:33.045Z,98016.38
2022-10-22T00:28:59.140Z,98014.72
2022-10-22T00:31:25.541Z,98007.97
2022-10-22T00:33:51.624Z,98019.03
2022-10-22T00:36:17.720Z,98009.41
2022-10-22T00:38:43.818Z,98000.16
2022-10-22T00:41:09.923Z,98014.72
2022-10-22T00:43:36.008Z,98007.31
2022-10-22T00:46:02.116Z,98015.53
2022-10-22T00:48:28.201Z,98018.84
2022-10-22T00:50:54.314Z,98010.00
2022-10-22T00:53:20.951Z,98005.88
2022-10-22T00:55:47.038Z,98003.03
2022-10-22T00:58:13.498Z,98009.59
2022-10-22T01:00:39.659Z,98007.13
2022-10-22T01:03:05.841Z,98008.38
2022-10-22T01:05:31.935Z,98011.84
2022-10-22T01:07:58.073Z,98000.38
2022-10-22T01:10:24.196Z,97997.91
2022-10-22T01:12:50.280Z,98003.84
2022-10-22T01:15:16.387Z,98007.34
2022-10-22T01:17:42.780Z,98005.31
2022-10-22T01:20:09.171Z,97999.16
2022-10-22T01:22:35.265Z,97991.97
2022-10-22T01:25:01.359Z,97991.34
2022-10-22T01:27:27.465Z,97989.72
2022-10-22T01:29:53.870Z,97997.09
2022-10-22T01:32:19.948Z,97984.56
2022-10-22T01:34:46.023Z,97980.66
2022-10-22T01:37:12.146Z,97977.59
2022-10-22T01:39:38.234Z,97985.59
2022-10-22T01:42:04.325Z,97977.41
2022-10-22T01:44:30.468Z,97969.81
2022-10-22T01:46:56.620Z,97969.84
2022-10-22T01:49:22.709Z,97965.31
2022-10-22T01:51:49.327Z,97961.00
2022-10-22T01:54:15.447Z,97962.63
2022-10-22T01:56:41.552Z,97955.25
2022-10-22T01:59:07.677Z,97954.03
2022-10-22T02:01:33.774Z,97951.59
2022-10-22T02:03:59.872Z,97966.13
2022-10-22T02:06:25.988Z,97961.00
2022-10-22T02:08:52.144Z,97949.75
2022-10-22T02:11:18.306Z,97956.28
2022-10-22T02:13:44.439Z,97948.69
2022-10-22T02:16:10.534Z,97953.00
2022-10-22T02:18:38.822Z,97945.63
2022-10-22T02:21:05.705Z,97961.22
2022-10-22T02:23:31.844Z,97947.88
2022-10-22T02:25:57.920Z,97950.31
2022-10-22T02:28:24.028Z,97962.84
2022-10-22T02:30:50.107Z,97975.16
2022-10-22T02:33:16.209Z,97970.44
2022-10-22T02:35:42.324Z,97975.56
2022-10-22T02:38:08.424Z,97969.41
2022-10-22T02:40:34.524Z,97972.25
2022-10-22T02:43:00.633Z,97963.47
2022-10-22T02:45:26.719Z,97971.47
2022-10-22T02:47:52.817Z,97972.66
2022-10-22T02:50:18.933Z,97979.47
2022-10-22T02:52:45.035Z,97982.50
2022-10-22T02:55:11.143Z,97973.72
2022-10-22T02:57:37.474Z,97977.38
2022-10-22T03:00:03.793Z,97970.84
2022-10-22T03:02:29.871Z,97973.28
2022-10-22T03:04:55.977Z,97977.19
2022-10-22T03:07:22.084Z,97969.81
2022-10-22T03:09:48.170Z,97959.16
2022-10-22T03:12:14.299Z,97975.13
2022-10-22T03:14:40.394Z,97986.22
2022-10-22T03:17:06.469Z,97984.56
2022-10-22T03:19:32.566Z,97988.47
2022-10-22T03:21:58.662Z,97996.88
2022-10-22T03:24:24.756Z,97999.75
2022-10-22T03:26:50.877Z,97994.63
2022-10-22T03:29:16.966Z,98001.16
2022-10-22T03:31:43.061Z,97997.06
2022-10-22T03:34:09.211Z,97989.69
2022-10-22T03:36:35.309Z,97996.44
2022-10-22T03:39:01.391Z,97995.22
2022-10-22T03:41:27.820Z,97993.78
2022-10-22T03:43:53.908Z,97993.78
2022-10-22T03:46:19.993Z,97994.63
2022-10-22T03:48:46.098Z,98003.66
2022-10-22T03:51:12.180Z,98004.66
2022-10-22T03:53:38.286Z,98009.59
2022-10-22T03:56:04.430Z,98005.28
2022-10-22T03:58:30.527Z,98007.09
2022-10-22T04:00:56.687Z,98003.81
2022-10-22T04:03:22.826Z,98005.91
2022-10-22T04:05:48.923Z,98008.34
2022-10-22T04:08:15.032Z,98007.53
2022-10-22T04:10:41.173Z,98006.47
2022-10-22T04:13:07.262Z,98010.59
2022-10-22T04:15:33.399Z,98006.09
2022-10-22T04:17:59.560Z,98013.22
2022-10-22T04:20:25.652Z,98005.06
2022-10-22T04:22:51.745Z,98015.72
2022-10-22T04:25:18.540Z,98020.00
2022-10-22T04:27:44.657Z,98018.97
2022-10-22T04:30:10.765Z,98021.63
2022-10-22T04:32:36.905Z,98022.69
2022-10-22T04:35:03.008Z,98023.47
2022-10-22T04:37:29.096Z,98025.34
2022-10-22T04:39:57.968Z,98022.88
2022-10-22T04:42:24.456Z,98028.44
2022-10-22T04:44:50.655Z,98030.91
2022-10-22T04:47:16.761Z,98038.06
2022-10-22T04:49:42.862Z,98035.19
2022-10-22T04:52:08.951Z,98033.16
2022-10-22T04:54:35.089Z,98033.97
2022-10-22T04:57:01.289Z,98036.63
2022-10-22T04:59:27.392Z,98030.72
2022-10-22T05:01:53.551Z,98035.78
2022-10-22T05:04:19.684Z,98035.41
2022-10-22T05:06:45.823Z,98034.16
2022-10-22T05:09:12.173Z,98040.75
2022-10-22T05:11:38.359Z,98043.19
2022-10-22T05:14:04.506Z,98040.94
2022-10-22T05:16:30.628Z,98048.94
2022-10-22T05:18:56.744Z,98050.97
2022-10-22T05:21:22.856Z,98043.59
2022-10-22T05:23:48.965Z,98042.59
2022-10-22T05:26:15.059Z,98045.25
2022-10-22T05:28:41.140Z,98042.75
2022-10-22T05:31:07.250Z,98043.19
2022-10-22T05:33:33.357Z,98049.13
2022-10-22T05:35:59.441Z,98048.28
2022-10-22T05:38:25.566Z,98049.75
2022-10-22T05:40:51.674Z,98046.06
2022-10-22T05:43:17.764Z,98049.75
2022-10-22T05:45:44.648Z,98054.66
2022-10-22T05:48:10.736Z,98071.47
2022-10-22T05:50:36.994Z,98066.56
2022-10-22T05:53:03.113Z,98068.19
2022-10-22T05:55:29.196Z,98074.13
2022-10-22T05:57:55.304Z,98073.50
2022-10-22T06:00:21.424Z,98072.28
2022-10-22T06:02:47.516Z,98081.34
2022-10-22T06:05:13.609Z,98090.78
2022-10-22T06:07:39.729Z,98094.88
2022-10-22T06:10:05.834Z,98088.91
2022-10-22T06:12:31.933Z,98095.50
2022-10-22T06:14:58.046Z,98091.78
2022-10-22T06:17:24.443Z,98090.75
2022-10-22T06:19:50.525Z,98095.28
2022-10-22T06:22:16.737Z,98099.78
2022-10-22T06:24:45.087Z,98095.28
2022-10-22T06:27:11.423Z,98107.16
2022-10-22T06:29:37.630Z,98109.19
2022-10-22T06:32:03.736Z,98117.19
2022-10-22T06:34:29.824Z,98123.56
2022-10-22T06:36:55.921Z,98127.47
2022-10-22T06:39:22.016Z,98126.25
2022-10-22T06:41:48.117Z,98133.03
2022-10-22T06:44:14.213Z,98135.69
2022-10-22T06:46:43.400Z,98138.53
2022-10-22T06:49:09.753Z,98139.78
2022-10-22T06:51:36.145Z,98146.56
2022-10-22T06:54:02.224Z,98139.56
2022-10-22T06:56:28.369Z,98152.31
2022-10-22T06:58:54.534Z,98158.84
2022-10-22T07:01:20.769Z,98165.22
2022-10-22T07:03:46.906Z,98167.47
2022-10-22T07:06:13.095Z,98165.84
2022-10-22T07:08:39.236Z,98164.41
2022-10-22T07:11:05.348Z,98170.56
2022-10-22T07:13:31.454Z,98183.06
2022-10-22T07:15:57.555Z,98189.63
2022-10-22T07:18:23.656Z,98184.50
2022-10-22T07:20:49.755Z,98197.03
2022-10-22T07:23:15.840Z,98197.03
2022-10-22T07:25:41.936Z,98190.28
2022-10-22T07:28:08.068Z,98198.28
2022-10-22T07:30:34.223Z,98209.16
2022-10-22T07:33:00.447Z,98201.81
2022-10-22T07:35:26.588Z,98203.44
2022-10-22T07:37:52.687Z,98211.25
2022-10-22T07:40:18.811Z,98208.59
2022-10-22T07:42:44.938Z,98221.94
2022-10-22T07:45:11.037Z,98212.75
2022-10-22T07:47:37.139Z,98218.25
2022-10-22T07:50:03.750Z,98214.78
2022-10-22T07:52:29.843Z,98224.44
2022-10-22T07:54:55.938Z,98215.22
2022-10-22T07:57:22.054Z,98205.78
2022-10-22T07:59:48.158Z,98222.59
2022-10-22T08:02:14.241Z,98218.91
2022-10-22T08:04:40.332Z,98225.47
2022-10-22T08:07:06.412Z,98235.75
2022-10-22T08:09:32.508Z,98227.13
2022-10-22T08:11:58.700Z,98228.34
2022-10-22T08:14:24.820Z,98230.63
2022-10-22T08:16:50.920Z,98238.63
2022-10-22T08:19:17.432Z,98242.94
2022-10-22T08:21:43.874Z,98238.22
2022-10-22T08:24:10.015Z,98235.34
2022-10-22T08:26:36.146Z,98243.59
2022-10-22T08:29:02.478Z,98252.19
2022-10-22T08:31:28.588Z,98245.63
2022-10-22T08:33:54.715Z,98247.69
2022-10-22T08:36:22.157Z,98253.66
2022-10-22T08:38:48.262Z,98262.28
2022-10-22T08:41:14.529Z,98259.81
2022-10-22T08:43:40.655Z,98261.25
2022-10-22T08:46:06.732Z,98260.63
2022-10-22T08:48:32.833Z,98267.59
2022-10-22T08:50:58.971Z,98260.44
2022-10-22T08:53:25.070Z,98271.13
2022-10-22T08:55:51.191Z,98275.22
2022-10-22T08:58:17.290Z,98283.41
2022-10-22T09:00:43.384Z,98277.06
2022-10-22T09:03:09.497Z,98297.22
2022-10-22T09:05:35.609Z,98285.72
2022-10-22T09:08:01.706Z,98288.81
2022-10-22T09:10:27.875Z,98291.88
2022-10-22T09:12:53.997Z,98293.53
2022-10-22T09:15:20.144Z,98294.16
2022-10-22T09:17:46.247Z,98295.34
2022-10-22T09:20:12.332Z,98295.56
2022-10-22T09:22:38.488Z,98292.50
2022-10-22T09:25:04.687Z,98297.84
2022-10-22T09:27:30.782Z,98299.25
2022-10-22T09:29:56.877Z,98305.00
2022-10-22T09:32:22.984Z,98303.78
2022-10-22T09:34:49.103Z,98304.41
2022-10-22T09:37:15.207Z,98300.31
2022-10-22T09:39:41.312Z,98314.88
2022-10-22T09:42:07.414Z,98321.03
2022-10-22T09:44:33.522Z,98317.53
2022-10-22T09:46:59.639Z,98334.81
2022-10-22T09:49:25.726Z,98320.00
2022-10-22T09:51:51.826Z,98324.13
2022-10-22T09:54:17.987Z,98332.31
2022-10-22T09:56:44.069Z,98334.38
2022-10-22T09:59:10.161Z,98332.31
2022-10-22T10:01:36.280Z,98356.56
2022-10-22T10:04:04.548Z,98343.22
2022-10-22T10:06:34.622Z,98343.44
2022-10-22T10:09:00.803Z,98356.34
2022-10-22T10:11:29.202Z,98353.53
2022-10-22T10:13:55.630Z,98349.63
2022-10-22T10:16:22.049Z,98357.66
2022-10-22T10:18:48.155Z,98360.31
2022-10-22T10:23:41.286Z,98365.66
2022-10-22T10:26:07.386Z,98357.63
2022-10-22T10:28:33.480Z,98358.25
2022-10-22T10:30:59.585Z,98363.81
2022-10-22T10:33:25.693Z,98361.13
2022-10-22T10:35:51.786Z,98364.03
2022-10-22T10:38:17.909Z,98367.94
2022-10-22T10:40:43.992Z,98364.00
2022-10-22T10:43:10.088Z,98372.44
2022-10-22T10:45:36.203Z,98378.59
2022-10-22T10:48:02.294Z,98372.88
2022-10-22T10:50:28.376Z,98370.41
2022-10-22T10:52:54.488Z,98373.25
2022-10-22T10:55:20.583Z,98382.28
2022-10-22T10:57:46.683Z,98377.34
2022-10-22T11:00:12.855Z,98375.50
2022-10-22T11:02:38.961Z,98381.25
2022-10-22T11:05:05.160Z,98388.84
2022-10-22T11:07:34.610Z,98389.41
2022-10-22T11:10:01.273Z,98381.41
2022-10-22T11:12:27.352Z,98374.25
2022-10-22T11:14:53.479Z,98391.28
2022-10-22T11:17:19.581Z,98395.38
2022-10-22T11:19:51.556Z,98379.97
2022-10-22T11:22:19.376Z,98396.44
2022-10-22T11:24:46.721Z,98381.44
2022-10-22T11:27:12.809Z,98382.88
2022-10-22T11:29:38.942Z,98383.75
2022-10-22T11:32:05.054Z,98387.63
2022-10-22T11:34:34.606Z,98382.94
2022-10-22T11:37:00.921Z,98382.47
2022-10-22T11:39:27.000Z,98399.94
2022-10-22T11:41:53.078Z,98387.19
2022-10-22T11:44:19.202Z,98396.25
2022-10-22T11:46:45.309Z,98385.34
2022-10-22T11:49:11.401Z,98395.84
2022-10-22T11:51:37.530Z,98404.06
2022-10-22T11:54:03.631Z,98395.81
2022-10-22T11:56:29.709Z,98409.16
2022-10-22T11:58:55.863Z,98391.69
2022-10-22T12:01:22.013Z,98399.31
2022-10-22T12:03:48.109Z,98391.09
2022-10-22T12:06:14.221Z,98405.47
2022-10-22T12:08:40.342Z,98397.25
2022-10-22T12:11:06.457Z,98401.16
2022-10-22T12:13:32.570Z,98410.81
2022-10-22T12:15:58.665Z,98402.44
2022-10-22T12:18:24.763Z,98403.44
2022-10-22T12:20:50.862Z,98408.97
2022-10-22T12:23:16.960Z,98402.38
2022-10-22T12:25:43.058Z,98402.59
2022-10-22T12:28:09.159Z,98412.88
2022-10-22T12:30:35.246Z,98404.22
2022-10-22T12:33:01.360Z,98400.34
2022-10-22T12:35:27.481Z,98409.81
2022-10-22T12:37:53.568Z,98402.59
2022-10-22T12:40:19.651Z,98394.38
2022-10-22T12:42:45.759Z,98389.03
2022-10-22T12:45:11.854Z,98384.53
2022-10-22T12:47:38.009Z,98393.13
2022-10-22T12:50:04.181Z,98379.19
2022-10-22T12:52:30.265Z,98394.38
2022-10-22T12:54:56.352Z,98388.66
2022-10-22T12:57:22.517Z,98404.91
2022-10-22T12:59:50.000Z,98407.53
2022-10-22T13:02:16.295Z,98395.00
2022-10-22T13:04:42.702Z,98389.91
2022-10-22T13:07:08.808Z,98395.25
2022-10-22T13:09:36.434Z,98396.66
2022-10-22T13:12:02.707Z,98400.19
2022-10-22T13:14:28.786Z,98397.72
2022-10-22T13:16:54.912Z,98398.34
2022-10-22T13:19:21.014Z,98379.66
2022-10-22T13:21:47.155Z,98397.09
2022-10-22T13:24:13.250Z,98391.34
2022-10-22T13:26:39.676Z,98399.56
2022-10-22T13:29:05.756Z,98383.56
2022-10-22T13:31:31.854Z,98387.03
2022-10-22T13:33:57.964Z,98387.22
2022-10-22T13:36:24.062Z,98397.31
2022-10-22T13:38:50.160Z,98390.94
2022-10-22T13:41:16.276Z,98392.78
2022-10-22T13:43:42.365Z,98395.06
2022-10-22T13:46:08.467Z,98394.25
2022-10-22T13:48:34.578Z,98398.34
2022-10-22T13:51:00.669Z,98387.25
2022-10-22T13:53:26.766Z,98407.81
2022-10-22T13:55:52.888Z,98404.31
2022-10-22T13:58:19.034Z,98405.34
2022-10-22T14:00:45.205Z,98396.91
2022-10-22T14:03:11.350Z,98414.16
2022-10-22T14:05:37.442Z,98419.13
2022-10-22T14:08:03.557Z,98419.53
2022-10-22T14:10:29.658Z,98412.94
2022-10-22T14:12:55.741Z,98421.56
2022-10-22T14:15:21.833Z,98415.81
2022-10-22T14:17:47.933Z,98421.78
2022-10-22T14:20:14.028Z,98427.97
2022-10-22T14:22:40.136Z,98420.34
2022-10-22T14:25:06.230Z,98423.63
2022-10-22T14:27:32.321Z,98431.22
2022-10-22T14:29:59.593Z,98430.59
2022-10-22T14:32:26.180Z,98439.03
2022-10-22T14:34:52.283Z,98439.03
2022-10-22T14:37:18.372Z,98429.56
2022-10-22T14:39:44.520Z,98444.59
2022-10-22T14:42:10.661Z,98440.06
2022-10-22T14:44:36.752Z,98437.38
2022-10-22T14:47:02.861Z,98445.41
2022-10-22T14:49:28.961Z,98447.47
2022-10-22T14:51:55.077Z,98444.78
2022-10-22T14:54:21.186Z,98450.94
2022-10-22T14:56:47.279Z,98446.22
2022-10-22T14:59:13.385Z,98450.94
2022-10-22T15:01:39.538Z,98456.53
2022-10-22T15:04:05.631Z,98449.53
2022-10-22T15:06:31.738Z,98455.69
2022-10-22T15:08:58.470Z,98456.50
2022-10-22T15:11:24.690Z,98454.69
2022-10-22T15:13:50.782Z,98447.50
2022-10-22T15:16:16.907Z,98458.19
2022-10-22T15:18:43.004Z,98445.84
2022-10-22T15:21:09.108Z,98447.66
2022-10-22T15:23:35.792Z,98451.81
2022-10-22T15:26:01.898Z,98450.75
2022-10-22T15:28:27.985Z,98448.72
2022-10-22T15:30:54.104Z,98444.41
2022-10-22T15:33:20.200Z,98441.09
2022-10-22T15:35:46.301Z,98444.38
2022-10-22T15:38:12.399Z,98438.84
2022-10-22T15:40:38.497Z,98452.41
2022-10-22T15:43:04.605Z,98446.44
2022-10-22T15:45:30.748Z,98457.53
2022-10-22T15:47:56.849Z,98451.56
2022-10-22T15:50:22.953Z,98459.19
2022-10-22T15:52:49.059Z,98449.50
2022-10-22T15:55:15.190Z,98450.34
2022-10-22T15:57:41.535Z,98450.97
2022-10-22T16:00:07.850Z,98449.94
2022-10-22T16:02:33.986Z,98436.38
2022-10-22T16:05:00.121Z,98433.88
2022-10-22T16:07:26.260Z,98441.25
2022-10-22T16:09:52.346Z,98446.13
2022-10-22T16:12:18.437Z,98437.72
2022-10-22T16:14:44.548Z,98446.09
2022-10-22T16:17:10.638Z,98443.59
2022-10-22T16:19:36.727Z,98440.72
2022-10-22T16:22:02.868Z,98437.19
2022-10-22T16:24:28.966Z,98451.75
2022-10-22T16:26:55.051Z,98446.59
2022-10-22T16:29:21.162Z,98444.94
2022-10-22T16:31:47.260Z,98451.72
2022-10-22T16:34:13.342Z,98451.91
2022-10-22T16:36:39.851Z,98457.00
2022-10-22T16:39:05.992Z,98457.59
2022-10-22T16:41:32.085Z,98462.31
2022-10-22T16:43:58.235Z,98458.63
2022-10-22T16:46:24.349Z,98469.03
2022-10-22T16:48:50.446Z,98463.69
2022-10-22T16:51:16.583Z,98464.06
2022-10-22T16:53:42.674Z,98462.63
2022-10-22T16:56:08.782Z,98471.19
2022-10-22T16:58:34.904Z,98462.97
2022-10-22T17:01:01.027Z,98457.88
2022-10-22T17:03:28.367Z,98471.19
2022-10-22T17:05:54.922Z,98469.16
2022-10-22T17:08:21.073Z,98472.41
2022-10-22T17:10:47.205Z,98466.44
2022-10-22T17:13:13.322Z,98472.41
2022-10-22T17:15:39.444Z,98465.13
2022-10-22T17:18:05.547Z,98474.63
2022-10-22T17:20:31.654Z,98470.03
2022-10-22T17:22:57.763Z,98473.53
2022-10-22T17:25:23.964Z,98482.50
2022-10-22T17:27:50.104Z,98470.63
2022-10-22T17:30:16.209Z,98485.16
2022-10-22T17:32:42.303Z,98483.84
2022-10-22T17:35:08.459Z,98488.34
2022-10-22T17:37:34.554Z,98483.84
2022-10-22T17:40:00.644Z,98490.44
2022-10-22T17:42:27.170Z,98490.63
2022-10-22T17:44:53.285Z,98485.03
2022-10-22T17:47:19.387Z,98491.78
2022-10-22T17:49:45.512Z,98493.44
2022-10-22T17:52:11.597Z,98487.66
2022-10-22T17:54:37.689Z,98503.00
2022-10-22T17:57:03.863Z,98502.41
2022-10-22T17:59:29.945Z,98501.38
2022-10-22T18:01:58.131Z,98510.38
2022-10-22T18:04:26.298Z,98514.69
2022-10-22T18:06:52.395Z,98500.72
2022-10-22T18:09:19.098Z,98513.81
2022-10-22T18:11:45.589Z,98510.13
2022-10-22T18:14:11.680Z,98512.16
2022-10-22T18:16:37.770Z,98510.50
2022-10-22T18:19:04.396Z,98509.28
2022-10-22T18:21:30.489Z,98510.13
2022-10-22T18:23:56.585Z,98509.88
2022-10-22T18:26:25.888Z,98510.06
2022-10-22T18:28:53.097Z,98515.75
2022-10-22T18:31:19.193Z,98513.75
2022-10-22T18:33:45.351Z,98516.97
2022-10-22T18:36:11.483Z,98519.47
2022-10-22T18:38:37.568Z,98519.00
2022-10-22T18:41:03.681Z,98514.69
2022-10-22T18:43:29.785Z,98508.09
2022-10-22T18:45:55.872Z,98516.06
2022-10-22T18:48:21.987Z,98519.78
2022-10-22T18:50:48.092Z,98525.34
2022-10-22T18:53:14.189Z,98530.25
2022-10-22T18:55:40.310Z,98528.41
2022-10-22T18:58:06.400Z,98530.69
2022-10-22T19:00:32.631Z,98513.22
2022-10-22T19:02:58.764Z,98514.63
2022-10-22T19:05:24.847Z,98510.31
2022-10-22T19:07:50.976Z,98502.31
2022-10-22T19:10:17.090Z,98507.44
2022-10-22T19:12:43.180Z,98507.09
2022-10-22T19:15:09.330Z,98500.09
2022-10-22T19:17:35.472Z,98507.84
2022-10-22T19:20:01.565Z,98515.66
2022-10-22T19:22:27.652Z,98515.25
2022-10-22T19:24:53.834Z,98505.41
2022-10-22T19:27:19.932Z,98510.41
2022-10-22T19:29:46.025Z,98513.91
2022-10-22T19:32:12.145Z,98522.78
2022-10-22T19:34:38.244Z,98511.75
2022-10-22T19:37:04.334Z,98504.03
2022-10-22T19:39:30.525Z,98515.69
2022-10-22T19:41:56.619Z,98510.81
2022-10-22T19:44:22.718Z,98508.34
2022-10-22T19:46:49.134Z,98502.63
2022-10-22T19:49:17.714Z,98498.94
2022-10-22T19:51:46.612Z,98495.66
2022-10-22T19:54:12.759Z,98494.00
2022-10-22T19:56:38.853Z,98483.53
2022-10-22T19:59:04.976Z,98496.41
2022-10-22T20:01:31.153Z,98491.25
2022-10-22T20:03:57.306Z,98491.19
2022-10-22T20:06:23.414Z,98496.47
2022-10-22T20:08:52.333Z,98495.44
2022-10-22T20:11:21.455Z,98503.97
2022-10-22T20:13:51.226Z,98499.13
2022-10-22T20:16:18.605Z,98513.84
2022-10-22T20:18:44.723Z,98507.06
2022-10-22T20:21:10.841Z,98505.59
2022-10-22T20:23:37.048Z,98509.91
2022-10-22T20:26:03.132Z,98511.28
2022-10-22T20:28:29.254Z,98512.81
2022-10-22T20:30:55.379Z,98509.72
2022-10-22T20:33:21.482Z,98518.34
2022-10-22T20:35:47.577Z,98516.31
2022-10-22T20:38:13.693Z,98516.25
2022-10-22T20:40:39.780Z,98511.81
2022-10-22T20:43:06.980Z,98507.50
2022-10-22T20:45:34.683Z,98510.72
2022-10-22T20:48:04.288Z,98501.16
2022-10-22T20:50:30.717Z,98503.94
2022-10-22T20:52:57.218Z,98506.88
2022-10-22T20:55:23.315Z,98505.94
2022-10-22T20:57:49.395Z,98500.53
2022-10-22T21:00:15.496Z,98500.63
2022-10-22T21:02:41.626Z,98504.56
2022-10-22T21:05:07.810Z,98503.19
2022-10-22T21:07:34.010Z,98507.72
2022-10-22T21:10:00.123Z,98509.78
2022-10-22T21:12:26.212Z,98506.38
2022-10-22T21:14:52.381Z,98507.03
2022-10-22T21:17:18.637Z,98504.81
2022-10-22T21:19:44.740Z,98508.31
2022-10-22T21:22:10.862Z,98508.09
2022-10-22T21:24:36.961Z,98509.56
2022-10-22T21:27:03.051Z,98503.91
2022-10-22T21:29:29.155Z,98495.69
2022-10-22T21:31:55.261Z,98504.16
2022-10-22T21:34:21.371Z,98501.28
2022-10-22T21:39:18.505Z,98505.41
2022-10-22T21:41:44.585Z,98508.72
2022-10-22T21:44:10.741Z,98508.72
2022-10-22T21:46:36.828Z,98504.03
2022-10-22T21:49:02.914Z,98494.41
2022-10-22T21:51:29.020Z,98505.31
2022-10-22T21:53:55.280Z,98500.16
2022-10-22T21:56:21.477Z,98493.63
2022-10-22T21:58:47.599Z,98492.63
2022-10-22T22:01:13.702Z,98500.97
2022-10-22T22:03:39.842Z,98502.63
2022-10-22T22:06:05.957Z,98498.31
2022-10-22T22:08:32.041Z,98496.66
2022-10-22T22:10:58.180Z,98491.59
2022-10-22T22:13:24.378Z,98494.72
2022-10-22T22:15:50.456Z,98498.00
2022-10-22T22:18:16.545Z,98496.78
2022-10-22T22:20:42.693Z,98504.78
2022-10-22T22:23:08.795Z,98503.59
2022-10-22T22:25:34.899Z,98502.75
2022-10-22T22:28:01.024Z,98501.75
2022-10-22T22:30:27.109Z,98493.56
2022-10-22T22:32:53.199Z,98495.22
2022-10-22T22:35:19.300Z,98485.38
2022-10-22T22:37:45.393Z,98491.53
2022-10-22T22:40:11.501Z,98493.19
2022-10-22T22:42:37.616Z,98497.69
2022-10-22T22:45:03.702Z,98495.22
2022-10-22T22:47:29.798Z,98497.69
2022-10-22T22:49:55.904Z,98493.75
2022-10-22T22:52:22.057Z,98488.63
2022-10-22T22:54:48.170Z,98484.75
2022-10-22T22:57:14.407Z,98474.72
2022-10-22T22:59:40.563Z,98475.94
2022-10-22T23:02:06.662Z,98476.56
2022-10-22T23:04:32.770Z,98477.78
2022-10-22T23:06:58.874Z,98482.09
2022-10-22T23:09:25.015Z,98482.09
2022-10-22T23:11:51.146Z,98471.63
2022-10-22T23:14:17.266Z,98474.66
2022-10-22T23:16:43.351Z,98469.97
2022-10-22T23:19:09.464Z,98471.81
2022-10-22T23:21:35.558Z,98467.47
2022-10-22T23:24:01.672Z,98477.53
2022-10-22T23:26:27.833Z,98475.88
2022-10-22T23:28:53.920Z,98472.63
2022-10-22T23:31:20.010Z,98470.16
2022-10-22T23:33:46.121Z,98464.97
2022-10-22T23:36:12.237Z,98454.88
2022-10-22T23:38:38.355Z,98448.91
2022-10-22T23:41:04.463Z,98447.03
2022-10-22T23:43:30.558Z,98452.78
2022-10-22T23:45:56.635Z,98449.28
2022-10-22T23:48:22.759Z,98452.41
2022-10-22T23:50:48.902Z,98437.81
2022-10-22T23:53:15.031Z,98439.91
2022-10-22T23:55:41.145Z,98438.47
2022-10-22T23:58:07.242Z,98433.78
